Time;durP1;ratioP1;P1;durP2;ratioP2;P2;SDS_P1;SDS_P2;PMS_P1;PMS_P2;Temp;Humidity;BMP_temperature;BMP_pressure;BME280_temperature;BME280_humidity;BME280_pressure;Samples;Min_cycle;Max_cycle;Signal;HPM_P1;HPM_P2
2023/09/21 00:00:15;;;;;;;7.90;4.00;;;;;;;15.76;nan;100486.34;5120232;27;20027;-70
2023/09/21 00:02:46;;;;;;;9.45;3.60;;;;;;;15.77;nan;100479.19;5124098;27;20903;-71
2023/09/21 00:05:13;;;;;;;5.03;3.38;;;;;;;15.69;nan;100464.53;5103058;27;20042;-70
2023/09/21 00:07:38;;;;;;;5.43;3.28;;;;;;;15.67;nan;100467.41;5119538;27;20058;-70
2023/09/21 00:10:06;;;;;;;6.43;3.38;;;;;;;15.77;nan;100479.19;5123962;27;20528;-70
2023/09/21 00:12:34;;;;;;;8.13;3.30;;;;;;;15.69;nan;100475.13;5122176;27;20033;-71
2023/09/21 00:15:12;;;;;;;9.63;3.60;;;;;;;15.69;nan;100481.25;5121587;27;20034;-69
2023/09/21 00:17:39;;;;;;;9.15;3.63;;;;;;;15.62;nan;100470.06;5119678;27;20019;-70
2023/09/21 00:20:21;;;;;;;5.63;3.25;;;;;;;15.61;nan;100478.25;5120009;27;20033;-71
2023/09/21 00:22:47;;;;;;;6.43;3.15;;;;;;;15.61;nan;100475.59;5120132;27;20023;-70
2023/09/21 00:25:14;;;;;;;5.53;3.22;;;;;;;15.54;nan;100467.88;5118478;27;20361;-70
2023/09/21 00:27:40;;;;;;;6.43;3.30;;;;;;;15.55;nan;100472.13;5120225;27;20022;-69
2023/09/21 00:30:06;;;;;;;7.75;3.17;;;;;;;15.48;nan;100468.91;5121331;27;20031;-72
2023/09/21 00:32:31;;;;;;;7.85;3.55;;;;;;;15.51;nan;100473.69;5121562;27;20565;-70
2023/09/21 00:34:58;;;;;;;4.43;3.30;;;;;;;15.42;nan;100459.28;5121109;27;20019;-70
2023/09/21 00:37:23;;;;;;;6.85;3.22;;;;;;;15.40;nan;100464.06;5120697;27;20026;-71
2023/09/21 00:39:49;;;;;;;7.40;3.15;;;;;;;15.37;nan;100462.72;5119794;27;20019;-71
2023/09/21 00:42:14;;;;;;;4.55;2.88;;;;;;;15.40;nan;100467.53;5121687;27;20433;-71
2023/09/21 00:44:40;;;;;;;4.93;3.00;;;;;;;15.34;nan;100463.22;5121060;27;20102;-71
2023/09/21 00:47:06;;;;;;;11.30;3.58;;;;;;;15.39;nan;100471.22;5122093;27;20038;-72
2023/09/21 00:49:32;;;;;;;7.95;3.42;;;;;;;15.31;nan;100450.47;5119631;27;20027;-73
2023/09/21 00:51:58;;;;;;;5.25;3.17;;;;;;;15.34;nan;100460.56;5120575;27;20487;-72
2023/09/21 00:54:24;;;;;;;6.07;2.92;;;;;;;15.21;nan;100445.09;5118012;27;20083;-71
2023/09/21 00:56:52;;;;;;;6.32;2.78;;;;;;;15.20;nan;100446.13;5123040;27;20028;-73
2023/09/21 00:59:19;;;;;;;6.18;3.00;;;;;;;15.15;nan;100457.50;5122062;27;20536;-72
2023/09/21 01:01:46;;;;;;;7.68;3.13;;;;;;;15.10;nan;100442.34;5118285;27;20066;-71
2023/09/21 01:04:12;;;;;;;5.80;2.88;;;;;;;15.18;nan;100456.19;5120229;27;20031;-72
2023/09/21 01:06:39;;;;;;;5.60;3.10;;;;;;;15.13;nan;100448.22;5118201;27;20130;-72
2023/09/21 01:09:09;;;;;;;5.53;3.28;;;;;;;15.06;nan;100443.94;5121338;27;20031;-72
2023/09/21 01:11:37;;;;;;;5.97;2.95;;;;;;;15.03;nan;100436.47;5122175;27;20031;-73
2023/09/21 01:14:04;;;;;;;5.25;3.00;;;;;;;15.07;nan;100442.88;5120497;27;20028;-73
2023/09/21 01:16:30;;;;;;;5.45;2.67;;;;;;;15.08;nan;100447.13;5103119;27;20035;-73
2023/09/21 01:18:55;;;;;;;7.35;2.85;;;;;;;15.02;nan;100444.69;5120109;27;20176;-76
2023/09/21 01:21:26;;;;;;;5.18;3.15;;;;;;;15.01;nan;100441.25;5121645;27;20035;-76
2023/09/21 01:23:52;;;;;;;4.75;2.80;;;;;;;14.92;nan;100424.19;5125753;27;20023;-76
2023/09/21 01:26:18;;;;;;;4.63;2.80;;;;;;;15.02;nan;100432.22;5103465;27;20030;-73
2023/09/21 01:28:47;;;;;;;5.45;2.50;;;;;;;15.07;nan;100439.44;5122213;27;20422;-74
2023/09/21 01:31:13;;;;;;;;;;;;;;;15.08;nan;100438.34;5122240;27;20381;-75
2023/09/21 01:33:42;;;;;;;6.05;2.45;;;;;;;15.01;nan;100421.84;5117938;27;19915;-75
2023/09/21 01:36:09;;;;;;;8.30;2.85;;;;;;;15.06;nan;100420.06;5102511;27;20035;-74
2023/09/21 01:38:37;;;;;;;5.13;2.80;;;;;;;15.01;nan;100413.91;5122756;27;20047;-73
2023/09/21 01:41:03;;;;;;;8.17;2.43;;;;;;;15.03;nan;100428.50;5124401;27;20465;-74
2023/09/21 01:43:28;;;;;;;6.25;2.58;;;;;;;15.04;nan;100430.13;5106636;27;20119;-77
2023/09/21 01:45:54;;;;;;;5.03;2.40;;;;;;;14.88;nan;100410.63;5120884;27;20015;-76
2023/09/21 01:48:20;;;;;;;4.53;2.45;;;;;;;14.95;nan;100415.72;5122094;27;20030;-77
2023/09/21 01:50:50;;;;;;;4.38;2.78;;;;;;;14.96;nan;100424.47;5119125;27;20038;-72
2023/09/21 01:53:19;;;;;;;4.63;2.20;;;;;;;14.98;nan;100436.44;5119486;27;20023;-77
2023/09/21 01:55:47;;;;;;;3.50;2.17;;;;;;;14.92;nan;100420.72;5105894;27;20091;-77
2023/09/21 01:58:14;;;;;;;4.45;2.35;;;;;;;14.89;nan;100429.97;5126634;27;20035;-76
2023/09/21 02:00:46;;;;;;;4.10;2.20;;;;;;;14.78;nan;100423.81;5128240;27;20027;-76
2023/09/21 02:03:12;;;;;;;7.50;2.67;;;;;;;14.78;nan;100430.97;5126078;27;20027;-77
2023/09/21 02:05:39;;;;;;;3.65;2.05;;;;;;;14.77;nan;100429.34;5125545;27;20025;-73
2023/09/21 02:08:07;;;;;;;3.42;2.15;;;;;;;14.74;nan;100412.09;5123004;27;20034;-73
2023/09/21 02:10:38;;;;;;;6.05;2.15;;;;;;;14.68;nan;100411.28;5108864;27;20580;-76
2023/09/21 02:13:05;;;;;;;3.58;2.00;;;;;;;14.68;nan;100407.81;5123222;27;20027;-76
2023/09/21 02:15:32;;;;;;;4.43;2.42;;;;;;;14.71;nan;100420.56;5111011;27;20026;-76
2023/09/21 02:17:57;;;;;;;6.75;2.55;;;;;;;14.66;nan;100420.53;5124490;27;20377;-76
2023/09/21 02:20:23;;;;;;;5.72;2.25;;;;;;;14.64;nan;100415.47;5123156;27;20023;-77
2023/09/21 02:22:51;;;;;;;2.95;1.90;;;;;;;14.47;nan;100399.66;5123630;27;20028;-75
2023/09/21 02:25:17;;;;;;;4.95;2.42;;;;;;;14.50;nan;100406.28;5123985;27;20118;-76
2023/09/21 02:27:49;;;;;;;4.80;2.25;;;;;;;14.54;nan;100414.59;5123104;27;20030;-75
2023/09/21 02:30:17;;;;;;;3.50;2.15;;;;;;;14.50;nan;100403.63;5125906;27;20034;-75
2023/09/21 02:32:53;;;;;;;3.10;2.03;;;;;;;14.46;nan;100403.34;5106670;27;20041;-77
2023/09/21 02:35:25;;;;;;;6.28;2.40;;;;;;;14.47;nan;100396.19;5127476;27;20015;-77
2023/09/21 02:37:52;;;;;;;3.42;2.03;;;;;;;14.52;nan;100398.09;5104705;27;20067;-77
2023/09/21 02:40:19;;;;;;;3.90;2.40;;;;;;;14.49;nan;100388.81;5123579;27;20027;-77
2023/09/21 02:42:49;;;;;;;3.47;2.28;;;;;;;14.55;nan;100400.28;5127152;27;20019;-75
2023/09/21 02:45:19;;;;;;;5.40;2.00;;;;;;;14.53;nan;100400.47;5125233;27;20027;-76
2023/09/21 02:47:46;;;;;;;5.63;2.72;;;;;;;14.53;nan;100400.47;5126831;27;20035;-77
2023/09/21 02:50:16;;;;;;;3.40;2.40;;;;;;;14.56;nan;100405.34;5121962;27;20355;-77
2023/09/21 02:52:46;;;;;;;3.75;2.40;;;;;;;14.55;nan;100398.41;5126659;27;20389;-76
2023/09/21 02:55:16;;;;;;;8.05;2.53;;;;;;;14.60;nan;100410.91;5126006;27;20499;-76
2023/09/21 02:57:44;;;;;;;28.60;3.00;;;;;;;14.61;nan;100413.31;5105177;27;20465;-76
2023/09/21 03:02:56;;;;;;;8.00;2.40;;;;;;;14.56;nan;100391.28;5125686;27;20062;-76
2023/09/21 03:05:24;;;;;;;6.10;2.30;;;;;;;14.57;nan;100393.66;5105028;27;20027;-76
2023/09/21 03:07:50;;;;;;;5.53;2.42;;;;;;;14.52;nan;100383.00;5126537;27;20064;-76
2023/09/21 03:10:21;;;;;;;7.60;2.33;;;;;;;14.68;nan;100397.22;5126103;27;20054;-76
2023/09/21 03:12:51;;;;;;;5.45;2.40;;;;;;;14.67;nan;100400.91;5122500;27;20015;-77
2023/09/21 03:15:18;;;;;;;;;;;;;;;14.66;nan;100401.97;5125714;27;20035;-76
2023/09/21 03:17:45;;;;;;;5.85;3.20;;;;;;;14.68;nan;100392.72;5123913;27;19911;-75
2023/09/21 03:20:19;;;;;;;5.20;2.60;;;;;;;14.71;nan;100403.88;5130360;27;20522;-79
2023/09/21 03:22:44;;;;;;;4.00;2.47;;;;;;;14.67;nan;100393.75;5138775;27;20027;-79
2023/09/21 03:25:16;;;;;;;6.10;3.10;;;;;;;14.65;nan;100390.56;5139023;27;20693;-79
2023/09/21 03:27:42;;;;;;;5.20;2.63;;;;;;;14.74;nan;100393.56;5131672;27;20019;-79
2023/09/21 03:30:11;;;;;;;4.18;2.53;;;;;;;14.71;nan;100374.72;5134208;27;20020;-79
2023/09/21 03:32:39;;;;;;;6.50;2.50;;;;;;;14.45;nan;100332.84;5131707;27;20030;-79
2023/09/21 03:35:06;;;;;;;3.97;2.65;;;;;;;14.81;nan;100383.53;5135935;27;20295;-78
2023/09/21 03:37:32;;;;;;;4.47;2.90;;;;;;;14.82;nan;100379.84;5116151;27;20020;-79
2023/09/21 03:39:57;;;;;;;4.57;2.70;;;;;;;14.79;nan;100377.69;5130074;27;20056;-79
2023/09/21 03:42:23;;;;;;;5.15;3.03;;;;;;;14.80;nan;100373.19;5118426;27;20034;-80
2023/09/21 03:44:48;;;;;;;5.22;2.60;;;;;;;14.79;nan;100372.38;5130471;27;20114;-79
2023/09/21 03:47:17;;;;;;;7.15;2.92;;;;;;;14.79;nan;100368.94;5131886;27;20031;-79
2023/09/21 03:49:44;;;;;;;6.57;2.65;;;;;;;14.76;nan;100367.59;5127590;27;20022;-79
2023/09/21 03:52:10;;;;;;;5.57;2.63;;;;;;;14.83;nan;100378.00;5133100;27;20080;-80
2023/09/21 03:54:36;;;;;;;3.67;2.60;;;;;;;14.84;nan;100368.97;5126887;27;20027;-80
2023/09/21 03:57:01;;;;;;;7.82;2.50;;;;;;;14.88;nan;100376.16;5110180;27;20042;-80
2023/09/21 03:59:27;;;;;;;3.80;2.70;;;;;;;14.85;nan;100368.72;5126325;27;20451;-80
2023/09/21 04:01:52;;;;;;;6.20;2.78;;;;;;;14.85;nan;100370.59;5123766;27;20440;-80
2023/09/21 04:04:18;;;;;;;4.35;2.63;;;;;;;14.80;nan;100362.59;5126445;27;20027;-80
2023/09/21 04:06:44;;;;;;;5.07;2.33;;;;;;;14.81;nan;100362.31;5128262;27;20615;-81
2023/09/21 04:09:10;;;;;;;5.75;2.53;;;;;;;14.86;nan;100377.47;5111738;27;20042;-80
2023/09/21 04:11:35;;;;;;;5.65;2.55;;;;;;;14.79;nan;100363.63;5104911;27;20126;-76
2023/09/21 04:14:03;;;;;;;3.72;2.40;;;;;;;14.76;nan;100359.63;5127462;27;20151;-80
2023/09/21 04:16:29;;;;;;;5.53;2.58;;;;;;;14.82;nan;100371.91;5123748;27;20397;-80
2023/09/21 04:18:55;;;;;;;5.10;2.42;;;;;;;14.86;nan;100370.31;5110819;27;20023;-80
2023/09/21 04:21:20;;;;;;;5.35;2.17;;;;;;;14.72;nan;100363.03;5124332;27;20046;-80
2023/09/21 04:23:47;;;;;;;6.13;2.47;;;;;;;14.71;nan;100350.84;5124364;27;20070;-80
2023/09/21 04:26:14;;;;;;;4.90;2.33;;;;;;;14.77;nan;100363.91;5108620;27;20035;-80
2023/09/21 04:28:40;;;;;;;4.85;2.28;;;;;;;14.70;nan;100349.25;5110145;27;20038;-76
2023/09/21 04:31:06;;;;;;;9.13;2.30;;;;;;;14.71;nan;100351.66;5102488;27;20027;-73
2023/09/21 04:33:33;;;;;;;9.25;2.55;;;;;;;14.71;nan;100345.56;5116656;27;20025;-74
2023/09/21 04:35:58;;;;;;;7.68;2.20;;;;;;;14.76;nan;100364.94;5121936;27;20053;-79
2023/09/21 04:38:24;;;;;;;5.63;2.75;;;;;;;14.72;nan;100361.19;5123114;27;20103;-76
2023/09/21 04:40:51;;;;;;;10.25;3.10;;;;;;;14.81;nan;100374.78;5126366;27;20393;-78
2023/09/21 04:43:17;;;;;;;9.50;2.63;;;;;;;14.78;nan;100362.84;5120881;27;20165;-73
2023/09/21 04:45:47;;;;;;;7.55;2.40;;;;;;;14.80;nan;100366.03;5120865;27;20027;-76
2023/09/21 04:48:13;;;;;;;5.90;2.42;;;;;;;14.47;nan;100317.50;5125738;27;20079;-71
2023/09/21 04:50:38;;;;;;;7.10;2.92;;;;;;;14.73;nan;100352.19;5103620;27;20023;-73
2023/09/21 04:53:03;;;;;;;6.60;2.25;;;;;;;14.82;nan;100363.94;5121733;27;20132;-73
2023/09/21 04:55:31;;;;;;;5.07;2.35;;;;;;;14.82;nan;100360.47;5125221;27;20035;-72
2023/09/21 04:57:57;;;;;;;6.78;2.63;;;;;;;14.65;nan;100336.75;5120967;27;20465;-77
2023/09/21 05:00:23;;;;;;;4.28;2.40;;;;;;;14.87;nan;100357.88;5122146;27;20037;-71
2023/09/21 05:02:48;;;;;;;5.53;2.65;;;;;;;14.79;nan;100337.91;5121985;27;20484;-76
2023/09/21 05:05:15;;;;;;;5.55;2.50;;;;;;;14.88;nan;100354.16;5124327;27;20685;-77
2023/09/21 05:07:41;;;;;;;4.82;2.40;;;;;;;14.85;nan;100349.38;5101221;27;20505;-75
2023/09/21 05:10:11;;;;;;;5.53;2.33;;;;;;;14.82;nan;100334.78;5115943;27;20027;-77
2023/09/21 05:12:37;;;;;;;5.93;2.70;;;;;;;14.83;nan;100330.28;5120004;27;20464;-74
2023/09/21 05:15:06;;;;;;;5.65;2.50;;;;;;;14.87;nan;100341.97;5120040;27;20087;-75
2023/09/21 05:17:32;;;;;;;6.60;2.45;;;;;;;14.83;nan;100332.91;5120650;27;20051;-74
2023/09/21 05:19:57;;;;;;;10.50;3.40;;;;;;;14.94;nan;100353.16;5120437;27;20490;-75
2023/09/21 05:22:23;;;;;;;5.95;2.50;;;;;;;14.90;nan;100330.84;5121939;27;20392;-75
2023/09/21 05:24:49;;;;;;;6.32;2.65;;;;;;;14.99;nan;100347.88;5120235;27;20027;-76
2023/09/21 05:27:14;;;;;;;7.47;2.72;;;;;;;14.99;nan;100344.41;5118145;27;20389;-75
2023/09/21 05:29:40;;;;;;;15.25;3.33;;;;;;;14.99;nan;100339.09;5121201;27;20034;-75
2023/09/21 05:32:06;;;;;;;8.57;3.38;;;;;;;15.05;nan;100343.41;5123057;27;20031;-75
2023/09/21 05:34:32;;;;;;;6.10;2.55;;;;;;;15.07;nan;100349.25;5125159;27;20019;-74
2023/09/21 05:36:57;;;;;;;5.40;2.67;;;;;;;15.00;nan;100346.81;5124525;27;20603;-74
2023/09/21 05:39:23;;;;;;;7.13;2.80;;;;;;;15.09;nan;100363.06;5124611;27;20036;-75
2023/09/21 05:41:51;;;;;;;7.43;3.00;;;;;;;15.08;nan;100358.78;5120980;27;20023;-74
2023/09/21 05:44:24;;;;;;;12.90;2.90;;;;;;;15.15;nan;100364.69;5106401;27;20031;-71
2023/09/21 05:46:51;;;;;;;6.28;2.60;;;;;;;15.24;nan;100362.34;5125227;27;20362;-69
2023/09/21 05:49:36;;;;;;;7.20;3.13;;;;;;;15.18;nan;100340.31;5123818;27;20031;-69
2023/09/21 05:52:03;;;;;;;6.25;2.72;;;;;;;15.24;nan;100349.09;5122837;27;20563;-70
2023/09/21 05:54:29;;;;;;;5.95;2.65;;;;;;;15.31;nan;100349.66;5124989;27;20030;-71
2023/09/21 05:56:55;;;;;;;8.05;2.85;;;;;;;15.37;nan;100356.59;5123429;27;20041;-71
2023/09/21 05:59:25;;;;;;;7.53;2.97;;;;;;;15.33;nan;100344.91;5121838;27;20079;-70
2023/09/21 06:01:51;;;;;;;8.15;3.00;;;;;;;15.44;nan;100346.56;5108955;27;20035;-71
2023/09/21 06:04:17;;;;;;;8.98;2.70;;;;;;;15.51;nan;100355.09;5125334;27;20030;-70
2023/09/21 06:06:44;;;;;;;9.43;3.03;;;;;;;15.47;nan;100340.72;5102508;27;20054;-78
2023/09/21 06:09:10;;;;;;;12.70;3.30;;;;;;;15.56;nan;100348.97;5112634;27;20393;-78
2023/09/21 06:11:36;;;;;;;9.45;3.30;;;;;;;15.67;nan;100352.47;5127866;27;20027;-77
2023/09/21 06:14:02;;;;;;;6.15;2.80;;;;;;;15.67;nan;100353.28;5127089;27;20543;-77
2023/09/21 06:16:29;;;;;;;9.43;3.10;;;;;;;15.76;nan;100352.81;5126619;27;20027;-77
2023/09/21 06:18:55;;;;;;;7.00;2.78;;;;;;;15.71;nan;100346.41;5125706;27;20015;-77
2023/09/21 06:21:20;;;;;;;8.65;2.60;;;;;;;15.84;nan;100354.97;5123634;27;20022;-76
2023/09/21 06:23:45;;;;;;;9.27;3.15;;;;;;;15.83;nan;100353.38;5123238;27;20032;-75
2023/09/21 06:26:14;;;;;;;8.35;3.35;;;;;;;15.82;nan;100347.25;5123942;27;20023;-75
2023/09/21 06:28:47;;;;;;;4.65;2.90;;;;;;;16.18;nan;100387.19;5123771;27;20518;-74
2023/09/21 06:31:13;;;;;;;14.77;5.38;;;;;;;15.93;nan;100338.25;5125522;27;20015;-76
2023/09/21 06:33:42;;;;;;;11.30;4.60;;;;;;;16.08;nan;100342.00;5123704;27;20027;-74
2023/09/21 06:36:15;;;;;;;15.27;5.78;;;;;;;16.12;nan;100351.84;5122671;27;20374;-76
2023/09/21 06:38:42;;;;;;;6.80;3.03;;;;;;;16.07;nan;100327.16;5122367;27;20591;-76
2023/09/21 06:41:08;;;;;;;12.32;4.63;;;;;;;16.18;nan;100342.00;5121329;27;20039;-71
2023/09/21 06:43:35;;;;;;;8.07;4.63;;;;;;;16.22;nan;100344.97;5121591;27;20026;-75
2023/09/21 06:46:01;;;;;;;9.10;4.68;;;;;;;16.27;nan;100350.28;5122674;27;20134;-75
2023/09/21 06:48:26;;;;;;;8.70;3.75;;;;;;;16.15;nan;100321.28;5126109;27;20138;-75
2023/09/21 06:50:52;;;;;;;11.75;4.97;;;;;;;16.28;nan;100333.25;5102176;27;20051;-76
2023/09/21 06:53:17;;;;;;;7.53;3.83;;;;;;;16.42;nan;100347.63;5125830;27;20030;-76
2023/09/21 06:55:43;;;;;;;9.55;3.45;;;;;;;16.42;nan;100330.88;5124312;27;20477;-76
2023/09/21 06:58:08;;;;;;;7.35;3.40;;;;;;;16.53;nan;100349.22;5124669;27;20034;-76
2023/09/21 07:00:37;;;;;;;10.55;4.00;;;;;;;16.53;nan;100335.94;5124093;27;20640;-76
2023/09/21 07:03:03;;;;;;;7.38;2.80;;;;;;;16.65;nan;100346.31;5121237;27;20615;-71
2023/09/21 07:05:28;;;;;;;7.25;2.75;;;;;;;16.69;nan;100347.38;5101292;27;20110;-75
2023/09/21 07:07:54;;;;;;;7.80;2.78;;;;;;;16.72;nan;100340.72;5123104;27;20030;-75
2023/09/21 07:10:19;;;;;;;7.38;3.05;;;;;;;16.70;nan;100325.03;5124352;27;20080;-71
2023/09/21 07:12:45;;;;;;;5.78;2.70;;;;;;;16.85;nan;100342.88;5121412;27;20038;-71
2023/09/21 07:15:10;;;;;;;5.05;2.92;;;;;;;16.92;nan;100334.63;5120392;27;20019;-71
2023/09/21 07:17:36;;;;;;;5.63;3.05;;;;;;;16.90;nan;100321.56;5106248;27;20042;-70
2023/09/21 07:20:06;;;;;;;8.35;2.85;;;;;;;17.05;nan;100335.91;5120809;27;20118;-71
2023/09/21 07:22:32;;;;;;;14.07;3.35;;;;;;;17.09;nan;100323.66;5105258;27;20164;-71
2023/09/21 07:24:58;;;;;;;4.93;3.15;;;;;;;17.07;nan;100312.50;5122926;27;20187;-71
2023/09/21 07:27:24;;;;;;;6.65;2.75;;;;;;;17.25;nan;100332.44;5099698;27;20027;-71
2023/09/21 07:29:52;;;;;;;6.55;3.35;;;;;;;17.19;nan;100310.34;5122251;27;20027;-72
2023/09/21 07:32:17;;;;;;;11.48;3.33;;;;;;;17.32;nan;100327.59;5124535;27;20115;-71
2023/09/21 07:34:43;;;;;;;7.18;3.00;;;;;;;17.38;nan;100337.97;5104182;27;20113;-72
2023/09/21 07:37:12;;;;;;;4.68;2.92;;;;;;;17.56;nan;100339.22;5121008;27;20164;-72
2023/09/21 07:39:38;;;;;;;6.40;3.00;;;;;;;17.57;nan;100327.50;5105319;27;20096;-73
2023/09/21 07:42:04;;;;;;;6.38;3.38;;;;;;;17.70;nan;100334.13;5122900;27;20027;-76
2023/09/21 07:44:30;;;;;;;9.23;3.03;;;;;;;;;;5122214;27;20027;-76
2023/09/21 07:46:57;;;;;;;13.73;3.50;;;;;;;;;;5121361;27;20031;-76
2023/09/21 07:49:25;;;;;;;5.55;3.08;;;;;;;;;;5124635;27;20060;-71
2023/09/21 07:51:50;;;;;;;9.27;3.15;;;;;;;18.06;nan;100340.06;5120899;27;20027;-71
2023/09/21 07:54:16;;;;;;;7.25;3.50;;;;;;;;;;5117848;27;20023;-75
2023/09/21 07:56:42;;;;;;;5.45;2.70;;;;;;;;;;5125409;27;20137;-75
2023/09/21 07:59:10;;;;;;;8.30;3.20;;;;;;;;;;5119751;27;20050;-75
2023/09/21 08:01:36;;;;;;;9.73;2.70;;;;;;;;;;5120704;27;20035;-73
2023/09/21 08:04:01;;;;;;;5.20;2.60;;;;;;;18.43;nan;100253.41;5105431;27;20035;-68
2023/09/21 08:06:28;;;;;;;6.13;2.60;;;;;;;;;;5123736;27;20023;-68
2023/09/21 08:08:54;;;;;;;9.05;2.85;;;;;;;;;;5122758;27;20035;-75
2023/09/21 08:11:19;;;;;;;5.78;3.05;;;;;;;;;;5118024;27;20018;-75
2023/09/21 08:13:44;;;;;;;6.93;3.40;;;;;;;;;;5105790;27;20037;-74
2023/09/21 08:16:10;;;;;;;7.43;2.72;;;;;;;;;;5119941;27;20023;-74
2023/09/21 08:18:39;;;;;;;36.20;20.63;;;;;;;18.92;nan;100289.78;5121322;27;20401;-74
2023/09/21 08:21:04;;;;;;;12.88;4.90;;;;;;;;;;5118474;27;20015;-74
2023/09/21 08:23:30;;;;;;;8.35;4.25;;;;;;;;;;5103896;27;20050;-75
2023/09/21 08:25:56;;;;;;;8.02;3.33;;;;;;;19.19;nan;100333.81;5124166;27;20031;-74
2023/09/21 08:28:22;;;;;;;8.40;3.35;;;;;;;19.30;nan;100307.81;5106151;27;20038;-71
2023/09/21 08:30:47;;;;;;;7.47;3.30;;;;;;;19.33;nan;100307.22;5123490;27;20144;-74
2023/09/21 08:33:13;;;;;;;7.55;2.95;;;;;;;19.40;nan;100307.66;5122205;27;20106;-70
2023/09/21 08:35:40;;;;;;;4.50;2.50;;;;;;;19.48;nan;100312.38;5120154;27;20148;-69
2023/09/21 08:38:06;;;;;;;9.35;3.65;;;;;;;19.51;nan;100278.94;5120607;27;20050;-69
2023/09/21 08:40:34;;;;;;;8.57;2.90;;;;;;;19.67;nan;100323.06;5119601;27;20020;-74
2023/09/21 08:43:00;;;;;;;5.82;3.47;;;;;;;19.73;nan;100367.38;5121245;27;20027;-77
2023/09/21 08:45:26;;;;;;;5.50;2.80;;;;;;;19.70;nan;100353.78;5122195;27;20035;-76
2023/09/21 08:47:52;;;;;;;5.50;2.83;;;;;;;19.83;nan;100353.09;5122942;27;20069;-76
2023/09/21 08:50:17;;;;;;;6.85;2.95;;;;;;;19.90;nan;100358.88;5122536;27;20015;-77
2023/09/21 08:52:48;;;;;;;11.85;3.47;;;;;;;19.94;nan;100349.22;5121682;27;20474;-77
2023/09/21 08:55:13;;;;;;;6.20;2.50;;;;;;;20.00;nan;100346.47;5121177;27;20035;-77
2023/09/21 08:57:39;;;;;;;8.32;3.25;;;;;;;20.19;nan;100369.44;5119864;27;20050;-71
2023/09/21 09:00:06;;;;;;;10.00;2.97;;;;;;;20.23;nan;100355.47;5119790;27;20054;-71
2023/09/21 09:02:35;;;;;;;10.45;3.20;;;;;;;20.27;nan;100353.81;5116037;27;20027;-70
2023/09/21 09:05:09;;;;;;;8.63;3.03;;;;;;;20.32;nan;100337.69;5122265;27;20094;-69
2023/09/21 09:07:39;;;;;;;10.32;3.45;;;;;;;20.54;nan;100355.78;5098001;28;20023;-70
2023/09/21 09:10:10;;;;;;;5.00;3.05;;;;;;;20.62;nan;100351.72;5102169;27;21061;-72
2023/09/21 09:12:37;;;;;;;6.90;3.08;;;;;;;20.57;nan;100334.66;5119599;27;20059;-70
2023/09/21 09:15:05;;;;;;;5.57;3.13;;;;;;;20.62;nan;100324.94;5119549;27;20912;-73
2023/09/21 09:17:31;;;;;;;5.18;2.97;;;;;;;20.79;nan;100336.69;5123505;27;20027;-73
2023/09/21 09:19:57;;;;;;;7.72;3.10;;;;;;;20.93;nan;100336.69;5103090;27;20027;-73
2023/09/21 09:22:23;;;;;;;8.45;3.53;;;;;;;21.05;nan;100349.59;5118213;27;20030;-71
2023/09/21 09:24:49;;;;;;;5.88;3.67;;;;;;;21.08;nan;100351.69;5119380;27;20027;-73
2023/09/21 09:27:15;;;;;;;9.60;3.58;;;;;;;21.13;nan;100348.91;5103383;28;20046;-70
2023/09/21 09:29:48;;;;;;;7.60;3.20;;;;;;;21.24;nan;100347.63;5122258;27;20024;-73
2023/09/21 09:32:16;;;;;;;6.72;3.70;;;;;;;21.20;nan;100335.91;5119144;27;20030;-70
2023/09/21 09:34:42;;;;;;;7.45;3.35;;;;;;;21.30;nan;100340.28;5120024;27;20500;-70
2023/09/21 09:37:12;;;;;;;8.98;3.40;;;;;;;21.35;nan;100342.06;5118151;27;20024;-70
2023/09/21 09:39:38;;;;;;;5.68;3.42;;;;;;;21.44;nan;100343.78;5101943;28;20493;-70
2023/09/21 09:42:06;;;;;;;9.60;3.45;;;;;;;21.42;nan;100327.19;5101926;28;20092;-70
2023/09/21 09:44:35;;;;;;;7.53;3.33;;;;;;;21.55;nan;100332.84;5101396;28;20476;-70
2023/09/21 09:47:03;;;;;;;6.43;3.35;;;;;;;21.60;nan;100330.09;5120825;27;20114;-71
2023/09/21 09:49:30;;;;;;;6.10;3.72;;;;;;;21.66;nan;100331.53;5119469;27;20026;-70
2023/09/21 09:51:59;;;;;;;8.35;3.60;;;;;;;21.74;nan;100333.53;5118798;27;20035;-75
2023/09/21 09:54:26;;;;;;;9.27;4.38;;;;;;;21.81;nan;100335.78;5122210;27;20023;-76
2023/09/21 09:56:54;;;;;;;9.82;4.70;;;;;;;21.84;nan;100338.66;5107426;28;20186;-76
2023/09/21 09:59:21;;;;;;;8.23;4.25;;;;;;;21.80;nan;100315.44;5122144;27;20034;-76
2023/09/21 10:01:49;;;;;;;8.30;4.40;;;;;;;21.92;nan;100325.63;5118593;28;20027;-76
2023/09/21 10:04:18;;;;;;;9.48;4.47;;;;;;;21.94;nan;100316.19;5122257;27;20065;-76
2023/09/21 10:06:46;;;;;;;;;;;;;;;21.80;nan;100294.78;5106414;28;20114;-76
2023/09/21 10:09:13;;;;;;;10.57;4.15;;;;;;;21.99;nan;100317.97;5119426;27;19946;-76
2023/09/21 10:11:48;;;;;;;6.95;3.60;;;;;;;21.96;nan;100303.28;5101608;28;20144;-77
2023/09/21 10:14:15;;;;;;;8.25;4.10;;;;;;;22.04;nan;100315.16;5117432;27;20394;-77
2023/09/21 10:16:53;;;;;;;7.60;4.05;;;;;;;22.14;nan;100320.28;5121678;27;20488;-72
2023/09/21 10:19:26;;;;;;;8.80;3.75;;;;;;;22.18;nan;100315.13;5123337;27;20679;-76
2023/09/21 10:22:03;;;;;;;6.35;3.90;;;;;;;22.14;nan;100298.03;5125029;27;20529;-77
2023/09/21 10:24:30;;;;;;;7.25;4.22;;;;;;;22.22;nan;100306.19;5121368;27;20032;-76
2023/09/21 10:27:03;;;;;;;15.40;4.50;;;;;;;22.17;nan;100290.19;5123775;27;20039;-77
2023/09/21 10:29:33;;;;;;;9.98;4.07;;;;;;;22.17;nan;100290.19;5125274;27;20023;-76
2023/09/21 10:32:06;;;;;;;9.05;4.18;;;;;;;22.20;nan;100289.59;5119124;27;20019;-78
2023/09/21 10:34:32;;;;;;;7.93;4.05;;;;;;;22.23;nan;100289.00;5122459;27;20031;-77
2023/09/21 10:37:04;;;;;;;7.80;4.45;;;;;;;22.29;nan;100286.97;5106003;27;20776;-77
2023/09/21 10:39:30;;;;;;;10.20;3.97;;;;;;;22.40;nan;100290.97;5109939;27;20130;-77
2023/09/21 10:42:03;;;;;;;6.97;4.15;;;;;;;22.49;nan;100280.31;5105030;27;20142;-76
2023/09/21 10:44:57;;;;;;;7.50;4.40;;;;;;;22.67;nan;100281.19;5104263;27;20104;-76
2023/09/21 10:47:29;;;;;;;8.32;3.88;;;;;;;22.91;nan;100278.94;5124331;27;20031;-77
2023/09/21 10:49:59;;;;;;;6.45;3.63;;;;;;;23.04;nan;100265.72;5125401;27;20438;-73
2023/09/21 10:52:28;;;;;;;7.90;4.20;;;;;;;23.17;nan;100259.44;5121993;27;20056;-76
2023/09/21 10:54:57;;;;;;;9.30;4.38;;;;;;;23.36;nan;100264.53;5124623;27;20019;-76
2023/09/21 10:57:27;;;;;;;9.88;4.50;;;;;;;23.59;nan;100253.66;5123343;27;20382;-77
2023/09/21 10:59:54;;;;;;;13.48;4.80;;;;;;;23.77;nan;100239.91;5103934;27;20038;-76
2023/09/21 11:02:20;;;;;;;13.55;4.60;;;;;;;23.95;nan;100231.84;5109768;27;20030;-77
2023/09/21 11:04:47;;;;;;;8.85;4.97;;;;;;;24.22;nan;100233.34;5123746;27;20429;-77
2023/09/21 11:07:13;;;;;;;12.90;4.18;;;;;;;24.42;nan;100234.56;5106849;27;20240;-71
2023/09/21 11:09:40;;;;;;;14.05;5.18;;;;;;;24.52;nan;100223.47;5123184;27;20030;-72
2023/09/21 11:12:08;;;;;;;14.55;4.85;;;;;;;24.65;nan;100220.88;5108648;27;20492;-79
2023/09/21 11:14:34;;;;;;;11.13;4.95;;;;;;;24.79;nan;100219.56;5122832;27;20118;-78
2023/09/21 11:16:59;;;;;;;10.77;5.20;;;;;;;24.79;nan;100227.63;5120498;27;20164;-78
2023/09/21 11:19:26;;;;;;;10.45;5.72;;;;;;;24.81;nan;100221.94;5122608;27;20158;-78
2023/09/21 11:21:51;;;;;;;12.45;5.15;;;;;;;24.71;nan;100220.41;5119149;27;20023;-72
2023/09/21 11:24:17;;;;;;;12.35;5.30;;;;;;;24.71;nan;100216.88;5121261;27;20026;-78
2023/09/21 11:26:46;;;;;;;9.32;5.53;;;;;;;24.64;nan;100201.25;5120971;27;20016;-79
2023/09/21 11:29:14;;;;;;;14.13;5.82;;;;;;;24.70;nan;100199.94;5123058;27;20437;-79
2023/09/21 11:31:44;;;;;;;8.68;5.57;;;;;;;24.62;nan;100177.34;5122939;27;20092;-72
2023/09/21 11:34:10;;;;;;;13.32;5.30;;;;;;;24.77;nan;100191.38;5120429;27;20055;-79
2023/09/21 11:36:36;;;;;;;9.73;5.32;;;;;;;24.74;nan;100173.97;5124525;27;20032;-77
2023/09/21 11:39:07;;;;;;;12.00;6.35;;;;;;;24.87;nan;100182.13;5120986;27;20505;-76
2023/09/21 11:41:33;;;;;;;12.75;5.18;;;;;;;24.95;nan;100163.22;5120602;27;20725;-76
2023/09/21 11:44:04;;;;;;;13.23;5.38;;;;;;;25.21;nan;100176.53;5122939;27;20034;-76
2023/09/21 11:46:30;;;;;;;11.75;5.50;;;;;;;25.42;nan;100165.72;5123765;27;20462;-69
2023/09/21 11:48:59;;;;;;;9.55;5.63;;;;;;;25.57;nan;100164.34;5102985;27;20354;-74
2023/09/21 11:51:28;;;;;;;15.45;5.50;;;;;;;25.75;nan;100164.94;5122843;27;20465;-69